TimeEST,TemperatureF,Dew PointF,Humidity,Sea Level PressureIn,VisibilityMPH,Wind Direction,Wind SpeedMPH,Gust SpeedMPH,PrecipitationIn,Events,Conditions,WindDirDegrees,DateUTC
12:15 AM,40.1,33.1,76,30.18,10.0,NE,5.8,-,N/A,,Clear,50,2014-02-18 05:15:00
12:35 AM,40.1,32.5,74,30.18,10.0,East,6.9,-,N/A,,Clear,80,2014-02-18 05:35:00
12:55 AM,39.7,32.5,75,30.17,10.0,East,4.6,-,N/A,,Scattered Clouds,80,2014-02-18 05:55:00
1:15 AM,39.4,32.9,78,30.16,10.0,East,5.8,-,N/A,,Scattered Clouds,90,2014-02-18 06:15:00
1:35 AM,39.9,33.3,77,30.16,10.0,ENE,4.6,-,N/A,,Mostly Cloudy,60,2014-02-18 06:35:00
1:55 AM,40.1,33.4,77,30.16,10.0,East,4.6,-,N/A,,Overcast,80,2014-02-18 06:55:00
2:15 AM,40.3,34.0,78,30.16,10.0,Calm,Calm,-,N/A,,Overcast,0,2014-02-18 07:15:00
2:35 AM,40.3,34.0,78,30.16,10.0,Calm,Calm,-,N/A,,Overcast,0,2014-02-18 07:35:00
2:55 AM,40.6,34.3,78,30.17,10.0,Calm,Calm,-,N/A,,Overcast,0,2014-02-18 07:55:00
3:15 AM,41.0,34.9,79,30.16,10.0,Calm,Calm,-,N/A,,Overcast,0,2014-02-18 08:15:00
3:35 AM,41.2,35.6,81,30.15,10.0,Calm,Calm,-,N/A,Rain,Light Rain,0,2014-02-18 08:35:00
3:55 AM,40.6,35.8,83,30.15,10.0,Calm,Calm,-,N/A,,Overcast,0,2014-02-18 08:55:00
4:15 AM,41.0,35.6,81,30.15,10.0,Calm,Calm,-,N/A,,Overcast,0,2014-02-18 09:15:00
4:35 AM,40.5,35.6,83,30.14,10.0,Calm,Calm,-,N/A,,Mostly Cloudy,0,2014-02-18 09:35:00
4:55 AM,40.3,36.1,85,30.14,10.0,Calm,Calm,-,N/A,,Mostly Cloudy,0,2014-02-18 09:55:00
5:15 AM,39.4,35.8,87,30.13,10.0,Calm,Calm,-,N/A,,Scattered Clouds,0,2014-02-18 10:15:00
5:35 AM,39.0,35.6,88,30.13,10.0,Calm,Calm,-,N/A,,Clear,0,2014-02-18 10:35:00
5:55 AM,38.3,35.6,90,30.14,10.0,Calm,Calm,-,N/A,,Clear,0,2014-02-18 10:55:00
6:15 AM,37.9,35.2,90,30.14,10.0,Calm,Calm,-,N/A,,Scattered Clouds,0,2014-02-18 11:15:00
6:35 AM,37.8,35.2,91,30.15,10.0,Calm,Calm,-,N/A,,Mostly Cloudy,0,2014-02-18 11:35:00
6:55 AM,37.4,35.1,91,30.16,7.0,Calm,Calm,-,N/A,,Scattered Clouds,0,2014-02-18 11:55:00
7:15 AM,36.9,34.7,92,30.16,7.0,Calm,Calm,-,N/A,,Clear,0,2014-02-18 12:15:00
7:35 AM,37.6,35.2,91,30.17,7.0,Calm,Calm,-,N/A,,Clear,0,2014-02-18 12:35:00
7:55 AM,39.2,36.0,88,30.19,10.0,Calm,Calm,-,N/A,,Clear,0,2014-02-18 12:55:00
8:15 AM,41.7,36.5,82,30.20,10.0,Calm,Calm,-,N/A,,Clear,0,2014-02-18 13:15:00
8:35 AM,43.3,36.5,77,30.21,10.0,NW,3.5,-,N/A,,Clear,320,2014-02-18 13:35:00
8:55 AM,44.6,37.0,75,30.23,10.0,Calm,Calm,-,N/A,,Clear,0,2014-02-18 13:55:00
9:15 AM,46.6,38.3,73,30.23,10.0,Calm,Calm,-,N/A,,Clear,0,2014-02-18 14:15:00
9:35 AM,48.6,39.9,72,30.24,10.0,NW,3.5,-,N/A,,Clear,320,2014-02-18 14:35:00
9:55 AM,50.9,41.2,69,30.24,10.0,West,4.6,-,N/A,,Clear,270,2014-02-18 14:55:00
10:15 AM,52.3,42.6,69,30.24,10.0,WNW,5.8,-,N/A,,Clear,290,2014-02-18 15:15:00
10:35 AM,54.1,43.0,66,30.24,10.0,West,5.8,-,N/A,,Clear,270,2014-02-18 15:35:00
10:55 AM,55.2,43.3,64,30.25,10.0,Calm,Calm,-,N/A,,Clear,0,2014-02-18 15:55:00
11:15 AM,58.1,43.5,58,30.24,10.0,West,4.6,-,N/A,,Clear,280,2014-02-18 16:15:00
11:35 AM,57.9,43.3,58,30.23,10.0,North,4.6,-,N/A,,Clear,10,2014-02-18 16:35:00
11:55 AM,58.8,42.4,55,-9999,-9999.0,North,-9999.0,-,N/A,,Unknown,0,2014-02-18 16:55:00
12:15 PM,60.6,42.1,50,30.21,10.0,Calm,Calm,-,N/A,,Unknown,0,2014-02-18 17:15:00
12:35 PM,60.4,41.5,50,30.21,10.0,NNW,4.6,-,N/A,,Clear,340,2014-02-18 17:35:00
12:55 PM,61.5,42.1,49,30.20,10.0,North,3.5,-,N/A,,Clear,360,2014-02-18 17:55:00
1:15 PM,62.6,42.3,47,30.19,10.0,Calm,Calm,-,N/A,,Clear,0,2014-02-18 18:15:00
1:35 PM,63.1,42.1,46,30.18,10.0,Calm,Calm,-,N/A,,Clear,0,2014-02-18 18:35:00
1:55 PM,64.6,42.4,44,30.17,10.0,WNW,3.5,-,N/A,,Clear,290,2014-02-18 18:55:00
2:15 PM,65.5,42.8,44,30.17,10.0,Calm,Calm,-,N/A,,Clear,0,2014-02-18 19:15:00
2:35 PM,66.2,42.6,42,30.16,10.0,West,5.8,-,N/A,,Clear,260,2014-02-18 19:35:00
2:55 PM,66.0,41.4,41,30.16,10.0,WSW,5.8,-,N/A,,Clear,250,2014-02-18 19:55:00
3:15 PM,66.0,41.0,40,30.16,10.0,West,5.8,-,N/A,,Clear,260,2014-02-18 20:15:00
3:35 PM,66.6,40.6,39,30.16,10.0,West,3.5,-,N/A,,Clear,270,2014-02-18 20:35:00
3:55 PM,66.0,40.5,39,30.16,10.0,WSW,4.6,-,N/A,,Clear,250,2014-02-18 20:55:00
4:15 PM,66.2,41.2,40,30.15,10.0,West,3.5,-,N/A,,Clear,270,2014-02-18 21:15:00
4:35 PM,65.8,41.7,41,30.15,10.0,Calm,Calm,-,N/A,,Clear,0,2014-02-18 21:35:00
4:55 PM,65.8,41.7,41,30.15,10.0,West,4.6,-,N/A,,Clear,270,2014-02-18 21:55:00
5:15 PM,65.3,41.0,41,30.15,10.0,Calm,Calm,-,N/A,,Clear,0,2014-02-18 22:15:00
5:35 PM,63.5,42.1,46,30.15,10.0,Calm,Calm,-,N/A,,Clear,0,2014-02-18 22:35:00
5:55 PM,61.3,42.1,49,30.15,10.0,Calm,Calm,-,N/A,,Clear,0,2014-02-18 22:55:00
6:15 PM,58.8,42.8,55,30.15,10.0,Calm,Calm,-,N/A,,Clear,0,2014-02-18 23:15:00
6:35 PM,57.2,42.4,58,30.16,10.0,Calm,Calm,-,N/A,,Clear,0,2014-02-18 23:35:00
6:55 PM,54.7,43.7,66,30.16,10.0,Calm,Calm,-,N/A,,Clear,0,2014-02-18 23:55:00
7:15 PM,52.2,43.7,73,30.16,10.0,Calm,Calm,-,N/A,,Clear,0,2014-02-19 00:15:00
7:35 PM,51.3,43.2,74,30.16,10.0,Calm,Calm,-,N/A,,Clear,0,2014-02-19 00:35:00
7:55 PM,49.8,42.3,75,30.16,10.0,Calm,Calm,-,N/A,,Clear,0,2014-02-19 00:55:00
8:15 PM,48.7,42.4,79,30.17,10.0,South,4.6,-,N/A,,Clear,180,2014-02-19 01:15:00
8:35 PM,49.6,42.6,77,30.17,10.0,South,3.5,-,N/A,,Clear,180,2014-02-19 01:35:00
8:55 PM,51.8,43.5,73,30.17,10.0,Calm,Calm,-,N/A,,Clear,0,2014-02-19 01:55:00
9:15 PM,50.7,43.3,76,30.17,10.0,Calm,Calm,-,N/A,,Clear,0,2014-02-19 02:15:00
9:35 PM,49.5,43.5,80,30.16,10.0,Calm,Calm,-,N/A,,Clear,0,2014-02-19 02:35:00
9:55 PM,46.9,43.2,87,30.16,10.0,Calm,Calm,-,N/A,,Clear,0,2014-02-19 02:55:00
10:15 PM,46.2,42.6,87,30.16,10.0,Calm,Calm,-,N/A,,Clear,0,2014-02-19 03:15:00
10:35 PM,47.1,43.9,88,30.15,10.0,Calm,Calm,-,N/A,,Clear,0,2014-02-19 03:35:00
10:55 PM,48.4,44.8,87,30.15,10.0,Calm,Calm,-,N/A,,Clear,0,2014-02-19 03:55:00
11:15 PM,48.4,45.0,88,30.14,10.0,Calm,Calm,-,N/A,,Clear,0,2014-02-19 04:15:00
11:35 PM,45.9,42.1,87,30.13,10.0,Calm,Calm,-,N/A,,Clear,0,2014-02-19 04:35:00
11:55 PM,47.3,44.4,90,30.13,10.0,Calm,Calm,-,N/A,,Clear,0,2014-02-19 04:55:00